KLEB

Lebanon Municipal Airport

Lebanon, New Hampshire, USA
KLEB 141923Z 1419/1518 19005KT P6SM SCT015 OVC035 TEMPO 1419/1422 BKN025 OVC050 FM142200 18004KT P6SM BKN025 OVC050 FM151500 35004KT P6SM OVC040
Issued Valid From Valid To
Dec-14 @ 19:23 UTC
(3 hours ago)
Dec-14 @ 19:00 UTC
(4 hours ago)
Dec-15 @ 18:00 UTC
(in 19 hours)
Expired Click to View Dec-14 @ 19:00 to Dec-14 @ 22:00
KLEB 141923Z 1419/1518 19005KT P6SM SCT015 OVC035
Wind Visibility Clouds
190° at 5 knots Greater than 6 miles
  • Scattered at 1,500' AGL
  • Overcast at 3,500' AGL
Expired Click to View Dec-14 @ 19:00 to Dec-14 @ 22:00
TEMPO 1419/1422 BKN025 OVC050
Clouds
  • Broken at 2,500' AGL
  • Overcast at 5,000' AGL
From Dec-14 @ 22:00 to Dec-15 @ 15:00
FM142200 18004KT P6SM BKN025 OVC050
Wind Visibility Clouds
180° at 4 knots Greater than 6 miles
  • Broken at 2,500' AGL
  • Overcast at 5,000' AGL
From Dec-15 @ 15:00 to Dec-15 @ 18:00
FM151500 35004KT P6SM OVC040
Wind Visibility Clouds
350° at 4 knots Greater than 6 miles
  • Overcast at 4,000' AGL
KLEB 141923Z 1419/1518 19005KT P6SM SCT015 OVC035 TEMPO 1419/1422 BKN025 OVC050 FM142200 18004KT P6SM BKN025 OVC050 FM151500 35004KT P6SM OVC040
Issued Dec-14 @ 19:23 UTC
(3 hours ago)
Valid From Dec-14 @ 19:00 UTC
(4 hours ago)
Valid To Dec-15 @ 18:00 UTC
(in 19 hours)
Dec-14 @ 19:00 - Dec-14 @ 22:00
Wind Visibility
190° at 5 knots Greater than 6 miles
Clouds
  • Scattered at 1,500' AGL
  • Overcast at 3,500' AGL
Dec-14 @ 19:00 - Dec-14 @ 22:00
Clouds
  • Broken at 2,500' AGL
  • Overcast at 5,000' AGL
From Dec-14 @ 22:00 - Dec-15 @ 15:00
Wind Visibility
180° at 4 knots Greater than 6 miles
Clouds
  • Broken at 2,500' AGL
  • Overcast at 5,000' AGL
From Dec-15 @ 15:00 - Dec-15 @ 18:00
Wind Visibility
350° at 4 knots Greater than 6 miles
Clouds
  • Overcast at 4,000' AGL